Time;durP1;ratioP1;P1;durP2;ratioP2;P2;SDS_P1;SDS_P2;PMS_P1;PMS_P2;Temp;Humidity;BMP_temperature;BMP_pressure;BME280_temperature;BME280_humidity;BME280_pressure;Samples;Min_cycle;Max_cycle;Signal;HPM_P1;HPM_P2
2022/08/12 00:43:16;;;;;;;3.28;1.17;;;20.70;99.90;;;;;;20521466;28;20126;-39
2022/08/12 00:53:18;;;;;;;1.65;0.60;;;20.50;99.90;;;;;;20510284;28;20141;-39
2022/08/12 01:03:20;;;;;;;1.50;0.50;;;20.30;99.90;;;;;;20505543;28;20115;-39
2022/08/12 01:13:22;;;;;;;1.15;0.60;;;20.10;99.90;;;;;;20508954;28;20345;-39
2022/08/12 01:23:44;;;;;;;1.80;0.57;;;20.00;99.90;;;;;;20508352;28;21126;-39
2022/08/12 01:34:10;;;;;;;1.73;0.77;;;19.80;99.90;;;;;;20502756;28;23458;-39
2022/08/12 01:44:13;;;;;;;1.25;0.70;;;19.70;99.90;;;;;;20495626;28;20332;-39
2022/08/12 01:54:16;;;;;;;0.98;0.50;;;19.60;99.90;;;;;;20495697;28;20133;-39
2022/08/12 02:15:36;;;;;;;0.88;0.40;;;19.40;99.90;;;;;;20488974;28;20240;-39
2022/08/12 02:25:42;;;;;;;1.43;0.73;;;19.40;99.90;;;;;;20523082;28;20311;-39
2022/08/12 02:35:44;;;;;;;1.02;0.60;;;19.40;99.90;;;;;;20518815;28;20657;-39
2022/08/12 02:45:55;;;;;;;1.75;0.60;;;19.40;99.90;;;;;;20524505;28;20524;-39
2022/08/12 02:56:01;;;;;;;19.55;0.80;;;19.50;99.90;;;;;;20507994;28;20149;-39
2022/08/12 03:06:16;;;;;;;2.70;0.88;;;19.50;99.90;;;;;;20502402;28;20121;-39
2022/08/12 03:16:19;;;;;;;1.80;0.50;;;19.50;99.90;;;;;;20498541;28;20766;-39
2022/08/12 03:26:24;;;;;;;1.13;0.65;;;19.50;99.90;;;;;;20501842;28;20283;-39
2022/08/12 03:36:27;;;;;;;1.15;0.60;;;19.40;99.90;;;;;;20493851;28;20925;-39
2022/08/12 04:07:13;;;;;;;3.25;0.70;;;19.40;99.90;;;;;;20495367;28;20270;-39
2022/08/12 04:17:14;;;;;;;1.77;1.02;;;19.30;99.90;;;;;;20514340;28;20172;-39
2022/08/12 04:27:15;;;;;;;2.10;1.00;;;19.10;99.90;;;;;;20484260;28;20494;-39
2022/08/12 04:37:16;;;;;;;2.95;1.27;;;19.00;99.90;;;;;;20448297;28;20638;-39
2022/08/12 04:47:20;;;;;;;3.17;0.93;;;18.90;99.90;;;;;;20478568;28;20642;-38
2022/08/12 04:57:21;;;;;;;2.10;0.90;;;18.70;99.90;;;;;;20483416;28;20265;-38
2022/08/12 05:07:22;;;;;;;1.65;1.05;;;18.50;99.90;;;;;;20447392;28;20220;-38
2022/08/12 05:17:24;;;;;;;2.63;1.10;;;18.40;99.90;;;;;;20501795;28;20491;-38
2022/08/12 05:27:25;;;;;;;2.30;0.80;;;18.50;99.90;;;;;;20488863;28;20137;-39
2022/08/12 05:37:26;;;;;;;2.30;1.00;;;18.60;99.90;;;;;;20505417;28;20093;-38
2022/08/12 05:47:28;;;;;;;1.40;0.70;;;18.90;99.90;;;;;;20486549;28;20142;-38
2022/08/12 05:57:28;;;;;;;1.42;0.77;;;19.20;99.90;;;;;;20489969;28;20651;-38
2022/08/12 06:07:30;;;;;;;1.45;0.75;;;19.60;99.90;;;;;;20509598;28;20672;-38
2022/08/12 06:17:32;;;;;;;4.00;2.30;;;20.50;99.90;;;;;;20501126;28;20145;-38
2022/08/12 06:27:48;;;;;;;1.70;1.00;;;20.50;99.90;;;;;;20484228;28;20114;-38
2022/08/12 06:37:51;;;;;;;1.42;0.82;;;20.70;99.90;;;;;;20489722;28;20824;-38
2022/08/12 06:47:52;;;;;;;2.17;0.60;;;21.00;99.90;;;;;;20494961;28;20118;-38
2022/08/12 06:57:56;;;;;;;1.67;0.80;;;21.30;99.90;;;;;;20497602;28;20161;-38
2022/08/12 07:07:57;;;;;;;2.00;1.00;;;21.50;99.90;;;;;;20501334;28;20090;-38
2022/08/12 07:28:10;;;;;;;2.13;0.80;;;22.00;99.90;;;;;;20494337;28;20035;-39
2022/08/12 07:38:24;;;;;;;1.33;0.70;;;22.00;99.90;;;;;;20513280;28;20149;-39
2022/08/12 07:48:25;;;;;;;1.75;0.70;;;22.30;99.90;;;;;;20502568;28;21894;-39
2022/08/12 07:58:26;;;;;;;1.92;0.80;;;22.50;99.90;;;;;;20509839;28;22516;-38
2022/08/12 08:08:28;;;;;;;1.38;0.55;;;22.80;99.90;;;;;;20494307;28;20042;-39
2022/08/12 08:18:30;;;;;;;3.38;0.90;;;22.90;99.90;;;;;;20502166;28;20126;-39
2022/08/12 08:28:34;;;;;;;2.63;0.90;;;23.30;99.90;;;;;;20514624;28;20096;-39
2022/08/12 08:38:35;;;;;;;1.77;0.95;;;23.70;99.90;;;;;;20514098;28;20153;-39
2022/08/12 08:48:37;;;;;;;2.10;0.90;;;24.20;99.90;;;;;;20509757;28;20169;-39
2022/08/12 08:58:38;;;;;;;6.15;1.55;;;24.60;99.90;;;;;;20497457;28;21390;-39
2022/08/12 09:08:43;;;;;;;2.30;1.15;;;25.20;99.90;;;;;;20505080;28;20522;-39
2022/08/12 09:18:44;;;;;;;1.70;0.85;;;25.70;99.90;;;;;;20483651;28;20046;-39
2022/08/12 09:28:49;;;;;;;1.98;1.35;;;26.30;99.90;;;;;;20511004;28;20192;-39
2022/08/12 09:38:50;;;;;;;1.65;1.15;;;26.80;99.90;;;;;;20517217;28;20066;-39
2022/08/12 09:48:51;;;;;;;1.55;0.90;;;27.20;99.90;;;;;;20522752;28;20046;-39
2022/08/12 09:58:52;;;;;;;2.25;0.98;;;27.70;99.90;;;;;;20513575;28;20274;-39
2022/08/12 10:08:53;;;;;;;3.78;0.90;;;28.30;99.90;;;;;;20518055;28;20070;-39
2022/08/12 10:19:00;;;;;;;1.65;0.85;;;29.40;99.90;;;;;;20518754;28;20043;-39
2022/08/12 10:39:22;;;;;;;2.17;1.10;;;29.40;97.50;;;;;;20521910;28;20812;-39
2022/08/12 10:49:27;;;;;;;1.73;0.95;;;29.70;96.80;;;;;;20504004;28;20679;-39
2022/08/12 10:59:29;;;;;;;1.50;1.07;;;30.00;96.70;;;;;;20519302;28;20566;-40
2022/08/12 11:09:30;;;;;;;2.25;1.00;;;30.30;96.50;;;;;;20523734;28;20105;-40
2022/08/12 11:19:32;;;;;;;2.00;0.98;;;30.50;93.90;;;;;;20515453;28;20089;-39
2022/08/12 11:29:34;;;;;;;2.42;1.00;;;30.80;93.20;;;;;;20495750;28;20529;-39
2022/08/12 11:39:35;;;;;;;2.90;1.23;;;31.00;93.20;;;;;;20501704;28;20346;-40
2022/08/12 11:49:36;;;;;;;1.52;0.80;;;31.80;90.60;;;;;;20514384;28;20632;-40
2022/08/12 11:59:37;;;;;;;2.67;1.40;;;32.10;90.40;;;;;;20493321;28;20108;-40
2022/08/12 12:09:38;;;;;;;1.77;0.70;;;32.30;89.70;;;;;;20504226;28;20058;-40
2022/08/12 12:19:39;;;;;;;2.30;1.35;;;32.50;89.70;;;;;;20481646;28;21875;-40
2022/08/12 12:29:40;;;;;;;1.27;0.73;;;32.60;90.00;;;;;;20483563;28;20185;-40
2022/08/12 12:39:42;;;;;;;1.75;1.35;;;32.60;88.60;;;;;;20499470;28;21123;-40
2022/08/12 12:49:43;;;;;;;3.22;0.90;;;32.70;85.80;;;;;;20489055;28;20442;-40
2022/08/12 13:00:13;;;;;;;1.40;0.70;;;33.40;86.20;;;;;;20498146;28;20170;-40
2022/08/12 13:10:05;;;;;;;1.90;0.63;;;33.90;86.90;;;;;;20487477;28;20129;-40
2022/08/12 13:20:09;;;;;;;4.18;0.85;;;33.40;87.50;;;;;;20493830;28;20058;-40
2022/08/12 13:30:14;;;;;;;1.20;0.77;;;33.20;87.00;;;;;;20500488;28;20082;-40
2022/08/12 13:40:15;;;;;;;1.17;0.60;;;33.60;87.20;;;;;;20498911;28;20125;-40
2022/08/12 13:50:16;;;;;;;1.75;0.70;;;33.50;87.00;;;;;;20496369;28;20125;-40
2022/08/12 14:00:17;;;;;;;3.53;1.55;;;33.80;84.90;;;;;;20475557;28;20073;-40
2022/08/12 14:10:35;;;;;;;2.67;0.60;;;33.50;85.10;;;;;;20499135;28;20129;-40
2022/08/12 14:20:37;;;;;;;2.42;0.85;;;33.30;85.40;;;;;;20495911;28;20851;-40
2022/08/12 14:30:48;;;;;;;1.63;0.77;;;33.40;84.50;;;;;;20505609;28;20698;-40
2022/08/12 14:40:57;;;;;;;1.42;0.57;;;33.10;86.40;;;;;;20516363;28;20715;-40
2022/08/12 14:50:59;;;;;;;1.70;0.95;;;32.80;85.30;;;;;;20512595;28;20093;-40
2022/08/12 15:11:20;;;;;;;1.00;0.57;;;32.50;85.30;;;;;;20529721;28;20058;-40
2022/08/12 15:21:23;;;;;;;1.60;0.90;;;32.10;87.00;;;;;;20508678;28;20932;-40
2022/08/12 15:31:24;;;;;;;1.00;0.52;;;31.80;88.30;;;;;;20547973;28;20888;-40
2022/08/12 15:41:25;;;;;;;1.55;0.63;;;31.90;86.30;;;;;;20574848;28;20466;-40
2022/08/12 15:51:28;;;;;;;1.20;0.80;;;31.90;80.60;;;;;;20557004;28;20069;-40
2022/08/12 16:01:30;;;;;;;1.25;0.70;;;32.00;79.70;;;;;;20527942;28;20153;-40
2022/08/12 16:11:38;;;;;;;2.08;0.90;;;31.90;79.40;;;;;;20562601;28;20098;-40
2022/08/12 16:21:41;;;;;;;1.13;0.52;;;31.80;79.70;;;;;;20557853;28;20434;-40
2022/08/12 16:31:43;;;;;;;1.13;0.63;;;31.70;79.40;;;;;;20554645;28;20046;-40
2022/08/12 16:41:45;;;;;;;3.10;1.25;;;31.50;79.70;;;;;;20530766;28;20442;-40
2022/08/12 16:51:46;;;;;;;3.45;1.10;;;31.30;80.10;;;;;;20530359;28;20050;-40
2022/08/12 17:01:48;;;;;;;4.28;0.80;;;31.20;80.00;;;;;;20539103;28;20054;-40
2022/08/12 17:11:49;;;;;;;0.95;0.60;;;31.00;81.90;;;;;;20535559;28;20038;-40
2022/08/12 17:21:50;;;;;;;1.95;1.05;;;30.70;82.40;;;;;;20536033;28;20321;-40
2022/08/12 17:31:53;;;;;;;2.20;1.05;;;30.50;83.20;;;;;;20552217;28;20046;-40
2022/08/12 17:41:54;;;;;;;1.27;0.68;;;30.30;83.90;;;;;;20554074;28;20094;-40
2022/08/12 17:51:55;;;;;;;1.90;0.80;;;30.00;82.80;;;;;;20544395;28;20038;-40
2022/08/12 18:01:57;;;;;;;3.00;1.08;;;29.80;85.20;;;;;;20525688;28;20072;-40
2022/08/12 18:22:19;;;;;;;1.55;1.00;;;29.10;90.00;;;;;;20555522;28;20352;-40
2022/08/12 18:32:24;;;;;;;1.85;0.85;;;28.80;87.10;;;;;;20555212;28;20042;-39
2022/08/12 18:42:26;;;;;;;1.40;0.93;;;28.60;90.30;;;;;;20553299;28;20929;-39
2022/08/12 18:52:29;;;;;;;4.45;1.55;;;28.30;90.10;;;;;;20546087;28;20126;-40
2022/08/12 19:02:35;;;;;;;1.10;0.70;;;27.90;91.20;;;;;;20569280;28;20104;-40
2022/08/12 19:22:56;;;;;;;1.90;0.95;;;26.90;95.90;;;;;;20572414;28;20268;-39
2022/08/12 19:32:59;;;;;;;2.05;0.80;;;26.40;99.90;;;;;;20552825;28;20443;-39
2022/08/12 19:43:20;;;;;;;2.42;1.15;;;26.00;99.90;;;;;;20540923;28;20042;-39
2022/08/12 19:53:23;;;;;;;1.80;0.90;;;25.70;99.90;;;;;;20554895;28;20077;-40
2022/08/12 20:03:24;;;;;;;1.92;1.02;;;25.40;99.90;;;;;;20542155;28;20938;-39
2022/08/12 20:13:26;;;;;;;2.35;1.30;;;25.10;99.90;;;;;;20562423;28;20418;-39
2022/08/12 20:23:29;;;;;;;2.67;1.60;;;24.70;99.90;;;;;;20566970;28;20524;-39
2022/08/12 20:33:30;;;;;;;2.20;1.10;;;24.40;99.90;;;;;;20557558;28;20269;-40
2022/08/12 20:43:34;;;;;;;3.95;1.63;;;24.10;99.90;;;;;;20544064;28;20046;-39
2022/08/12 20:53:35;;;;;;;1.88;1.23;;;23.90;99.90;;;;;;20549292;28;20140;-39
2022/08/12 21:13:56;;;;;;;2.33;0.98;;;23.40;99.90;;;;;;20559241;28;20937;-39
2022/08/12 21:23:58;;;;;;;1.65;0.85;;;23.20;99.90;;;;;;20563439;28;20046;-39
2022/08/12 21:34:00;;;;;;;2.90;1.38;;;23.10;99.90;;;;;;20559108;28;20046;-39
2022/08/12 21:44:05;;;;;;;2.10;1.05;;;22.90;99.90;;;;;;20571300;28;20057;-39
2022/08/12 21:54:06;;;;;;;1.50;0.73;;;22.80;99.90;;;;;;20536891;28;20303;-39
2022/08/12 22:14:28;;;;;;;2.60;1.15;;;22.60;99.90;;;;;;20502281;28;20442;-39
2022/08/12 22:24:29;;;;;;;1.38;0.70;;;22.40;99.90;;;;;;20508506;28;20082;-39
2022/08/12 22:34:30;;;;;;;3.67;1.77;;;22.30;99.90;;;;;;20525824;28;20097;-39
2022/08/12 22:54:51;;;;;;;2.45;0.90;;;22.10;99.90;;;;;;20537262;28;20236;-39
2022/08/12 23:04:52;;;;;;;1.83;0.60;;;22.10;99.90;;;;;;20523913;28;20137;-39
2022/08/12 23:14:53;;;;;;;5.10;0.70;;;22.00;99.90;;;;;;20518713;28;20122;-39
2022/08/12 23:24:54;;;;;;;1.67;0.75;;;21.70;99.90;;;;;;20516557;28;20042;-39
2022/08/12 23:34:55;;;;;;;1.60;0.70;;;21.50;99.90;;;;;;20525964;28;20149;-39
2022/08/12 23:44:56;;;;;;;2.95;1.10;;;21.40;99.90;;;;;;20507621;28;20202;-39
2022/08/12 23:54:57;;;;;;;1.30;0.52;;;21.30;99.90;;;;;;20518895;28;20438;-39
